This is the latest recevied weather packets stored in our database for station/object KF5WOE-13. If no packets are shown the sender has not sent any weather packets the latest 1 day(s).
| Time | Temp. | Humidity | Pressure | Rain* | Wind** | Luminosity | Snow |
|---|---|---|---|---|---|---|---|
| 1836274611 | 19.44° C | - | - | 0 mm | 0.89 m/s, 152° | - | - |
| 1836274465 | 19.44° C | - | - | 0 mm | 0.89 m/s, 128° | - | - |
| 1836274309 | 19.44° C | - | - | 0 mm | 0.45 m/s, 106° | - | - |
| 1836274163 | 19.44° C | - | - | 0 mm | 2.24 m/s, 118° | - | - |
| 1836274008 | 19.44° C | - | - | 0 mm | 0.89 m/s, 134° | - | - |
| 1778057404 | 60° C | - | - | 0 mm | 2.24 m/s, 9° | - | - |
| 1778057101 | 60° C | - | - | 0 mm | 1.34 m/s, 312° | - | - |
| 1778056797 | 60° C | - | - | 0 mm | 3.13 m/s, 6° | - | - |
| 1778056494 | 60° C | - | - | 0 mm | 2.24 m/s, 347° | - | - |
| 1778056191 | 60° C | - | - | 0 mm | 1.34 m/s, 352° | - | - |
| 1778055888 | 60° C | - | - | 0 mm | 2.24 m/s, 332° | - | - |
| 1778055584 | 60° C | - | - | 0 mm | 0.45 m/s, 327° | - | - |
| 1778055283 | 60° C | - | - | 0 mm | 2.68 m/s, 16° | - | - |
| 1778054979 | 60° C | - | - | 0 mm | 3.58 m/s, 8° | - | - |
| 1778054676 | 60° C | - | - | 0 mm | 4.92 m/s, 12° | - | - |
| 1778054374 | 60° C | - | - | 0 mm | 3.58 m/s, 0° | - | - |
| 1778054071 | 60° C | - | - | 0 mm | 4.47 m/s, 30° | - | - |
| 1778053769 | 60° C | - | - | 0 mm | 1.79 m/s, 321° | - | - |
| 1778053465 | 60° C | - | - | 0 mm | 2.24 m/s, 338° | - | - |
| 1778053162 | 60° C | - | - | 0 mm | 2.68 m/s, 328° | - | - |
| 1778052860 | 60° C | - | - | 0 mm | 1.34 m/s, 324° | - | - |
| 1778052558 | 60° C | - | - | 0 mm | 3.58 m/s, 22° | - | - |
| 1778052254 | 60° C | - | - | 0 mm | 2.68 m/s, 322° | - | - |
| 1778051952 | 60° C | - | - | 0 mm | 2.24 m/s, 350° | - | - |
| 1778051650 | 60° C | - | - | 0 mm | 2.24 m/s, 329° | - | - |
* Rain latest hour (hover to see other rain measurements)
** Current wind speed in m/s (hover to see current wind gust speed)